createdAt,value
2017-08-24T00:01:27.548Z,68.90
2017-08-24T00:06:55.738Z,69.30
2017-08-24T00:12:23.918Z,69.70
2017-08-24T00:17:52.109Z,69.80
2017-08-24T00:23:20.253Z,70.70
2017-08-24T00:28:48.422Z,70.20
2017-08-24T00:39:50.982Z,70.60
2017-08-24T00:45:19.151Z,70.90
2017-08-24T00:50:47.321Z,71.20
2017-08-24T00:56:15.493Z,71.60
2017-08-24T01:01:43.643Z,71.70
2017-08-24T01:07:11.800Z,72.20
2017-08-24T01:12:40.091Z,72.20
2017-08-24T01:18:08.226Z,72.40
2017-08-24T01:23:36.387Z,72.60
2017-08-24T01:29:04.531Z,72.80
2017-08-24T01:34:32.693Z,73.00
2017-08-24T01:40:01.599Z,73.20
2017-08-24T01:45:29.735Z,73.30
2017-08-24T01:50:57.885Z,73.30
2017-08-24T01:56:26.056Z,73.50
2017-08-24T02:01:54.190Z,73.80
2017-08-24T02:07:22.400Z,74.00
2017-08-24T02:12:50.565Z,74.10
2017-08-24T02:18:18.701Z,74.20
2017-08-24T02:23:46.881Z,74.40
2017-08-24T02:29:15.053Z,74.50
2017-08-24T02:34:43.202Z,74.40
2017-08-24T02:40:11.357Z,74.50
2017-08-24T02:45:39.495Z,74.80
2017-08-24T02:51:07.664Z,74.80
2017-08-24T02:56:35.804Z,75.00
2017-08-24T03:02:03.960Z,75.10
2017-08-24T03:07:32.107Z,75.30
2017-08-24T03:13:00.244Z,75.60
2017-08-24T03:18:28.415Z,75.40
2017-08-24T03:23:56.741Z,75.60
2017-08-24T03:29:24.966Z,75.70
2017-08-24T03:34:53.128Z,75.90
2017-08-24T03:40:21.333Z,75.70
2017-08-24T03:45:49.530Z,76.00
2017-08-24T03:51:17.695Z,76.10
2017-08-24T03:56:45.845Z,76.30
2017-08-24T04:02:14.023Z,76.40
2017-08-24T04:07:42.180Z,76.40
2017-08-24T04:13:10.327Z,76.40
2017-08-24T04:18:38.466Z,76.30
2017-08-24T04:24:06.610Z,76.60
2017-08-24T04:29:46.262Z,76.70
2017-08-24T04:35:14.464Z,76.90
2017-08-24T04:40:42.626Z,76.70
2017-08-24T04:46:10.766Z,76.90
2017-08-24T04:51:38.927Z,76.90
2017-08-24T04:57:07.107Z,77.00
2017-08-24T05:02:35.264Z,77.00
2017-08-24T05:08:03.443Z,76.90
2017-08-24T05:13:31.584Z,76.60
2017-08-24T05:18:59.727Z,76.60
2017-08-24T05:24:27.885Z,76.20
2017-08-24T05:29:56.066Z,76.00
2017-08-24T05:35:24.200Z,75.70
2017-08-24T05:40:52.407Z,75.10
2017-08-24T05:46:20.568Z,74.60
2017-08-24T05:51:48.739Z,74.30
2017-08-24T05:57:16.893Z,73.80
2017-08-24T06:02:45.793Z,73.40
2017-08-24T06:08:13.946Z,72.70
2017-08-24T06:13:42.073Z,72.20
2017-08-24T06:19:10.231Z,72.20
2017-08-24T06:24:38.367Z,71.30
2017-08-24T06:30:06.514Z,70.70
2017-08-24T06:35:34.650Z,70.10
2017-08-24T06:41:02.808Z,69.30
2017-08-24T06:46:30.956Z,69.80
2017-08-24T06:51:59.104Z,68.90
2017-08-24T06:57:27.249Z,68.10
2017-08-24T07:02:55.411Z,68.00
2017-08-24T07:08:23.580Z,67.80
2017-08-24T07:13:51.731Z,67.40
2017-08-24T07:19:19.891Z,66.70
2017-08-24T07:24:48.047Z,66.70
2017-08-24T07:30:16.202Z,66.30
2017-08-24T07:35:44.378Z,66.40
2017-08-24T07:41:12.528Z,66.20
2017-08-24T07:46:41.043Z,65.20
2017-08-24T07:52:09.224Z,64.90
2017-08-24T07:57:37.365Z,65.40
2017-08-24T08:03:05.513Z,64.10
2017-08-24T08:08:33.674Z,63.60
2017-08-24T08:14:01.822Z,63.90
2017-08-24T08:19:29.991Z,63.50
2017-08-24T08:24:58.143Z,63.70
2017-08-24T08:30:26.322Z,61.80
2017-08-24T08:35:54.474Z,61.70
2017-08-24T08:41:22.645Z,61.00
2017-08-24T08:46:51.186Z,60.50
2017-08-24T08:52:19.321Z,59.70
2017-08-24T08:57:47.471Z,60.40
2017-08-24T09:03:15.617Z,58.80
2017-08-24T09:08:43.801Z,58.10
2017-08-24T09:14:11.958Z,57.60
2017-08-24T09:19:40.106Z,57.40
2017-08-24T09:25:08.273Z,57.30
2017-08-24T09:30:36.433Z,57.30
2017-08-24T09:36:05.371Z,57.20
2017-08-24T09:41:33.543Z,57.20
2017-08-24T09:47:01.701Z,56.10
2017-08-24T09:52:29.828Z,56.50
2017-08-24T09:57:57.957Z,55.80
2017-08-24T10:03:26.115Z,55.90
2017-08-24T10:08:54.276Z,56.20
2017-08-24T10:14:22.477Z,55.40
2017-08-24T10:19:50.663Z,55.70
2017-08-24T10:25:18.797Z,55.90
2017-08-24T10:30:46.956Z,54.90
2017-08-24T10:36:15.120Z,55.10
2017-08-24T10:41:43.264Z,54.90
2017-08-24T10:47:11.613Z,55.10
2017-08-24T10:52:39.762Z,54.60
2017-08-24T10:58:07.935Z,53.70
2017-08-24T11:03:36.056Z,54.00
2017-08-24T11:09:04.221Z,54.20
2017-08-24T11:14:32.557Z,54.50
2017-08-24T11:20:00.783Z,53.40
2017-08-24T11:25:28.921Z,53.50
2017-08-24T11:30:57.058Z,53.00
2017-08-24T11:36:25.219Z,52.80
2017-08-24T11:41:53.374Z,52.70
2017-08-24T11:47:21.573Z,52.40
2017-08-24T11:52:49.746Z,51.00
2017-08-24T11:58:17.976Z,50.70
2017-08-24T12:03:46.119Z,51.90
2017-08-24T12:09:14.272Z,51.10
2017-08-24T12:14:42.425Z,51.30
2017-08-24T12:20:10.574Z,49.50
2017-08-24T12:25:38.710Z,50.40
2017-08-24T12:31:06.858Z,49.00
2017-08-24T12:36:35.010Z,49.80
2017-08-24T12:42:03.160Z,50.00
2017-08-24T12:47:31.309Z,49.20
2017-08-24T12:52:59.454Z,48.80
2017-08-24T12:58:27.611Z,48.60
2017-08-24T13:03:55.791Z,48.70
2017-08-24T13:09:23.937Z,48.50
2017-08-24T13:14:52.132Z,48.20
2017-08-24T13:20:20.273Z,48.80
2017-08-24T13:25:48.409Z,48.50
2017-08-24T13:31:16.588Z,47.40
2017-08-24T13:36:44.724Z,47.80
2017-08-24T13:42:12.885Z,47.30
2017-08-24T13:47:41.027Z,46.90
2017-08-24T13:53:09.170Z,46.60
2017-08-24T13:58:37.317Z,45.50
2017-08-24T14:04:05.465Z,44.30
2017-08-24T14:09:33.615Z,43.10
2017-08-24T14:15:01.766Z,41.90
2017-08-24T14:20:29.908Z,37.40
2017-08-24T14:25:59.028Z,31.70
2017-08-24T14:31:27.201Z,29.10
2017-08-24T14:36:55.396Z,27.20
2017-08-24T14:42:23.562Z,25.10
2017-08-24T14:47:51.723Z,24.20
2017-08-24T14:53:19.885Z,24.00
2017-08-24T14:58:48.080Z,24.40
2017-08-24T15:04:16.230Z,24.70
2017-08-24T15:09:45.146Z,28.20
2017-08-24T15:15:13.295Z,28.10
2017-08-24T15:20:42.009Z,31.60
2017-08-24T15:26:10.170Z,34.70
2017-08-24T15:31:38.333Z,36.40
2017-08-24T15:37:06.492Z,36.80
2017-08-24T15:42:34.624Z,38.20
2017-08-24T15:48:02.778Z,36.50
2017-08-24T15:53:30.937Z,37.00
2017-08-24T15:58:59.105Z,39.00
2017-08-24T16:04:27.247Z,41.00
2017-08-24T16:09:55.414Z,42.20
2017-08-24T16:15:23.603Z,43.50
2017-08-24T16:20:51.752Z,44.70
2017-08-24T16:26:19.904Z,46.00
2017-08-24T16:31:48.093Z,46.60
2017-08-24T16:37:16.242Z,47.10
2017-08-24T16:42:44.383Z,47.50
2017-08-24T16:48:12.547Z,48.40
2017-08-24T16:53:40.695Z,49.10
2017-08-24T16:59:08.839Z,49.30
2017-08-24T17:04:37.020Z,49.70
2017-08-24T17:10:05.171Z,50.10
2017-08-24T17:15:33.326Z,50.90
2017-08-24T17:21:01.502Z,51.60
2017-08-24T17:26:29.793Z,52.30
2017-08-24T17:31:58.021Z,53.60
2017-08-24T17:37:26.556Z,53.30
2017-08-24T17:42:54.977Z,54.00
2017-08-24T17:48:23.291Z,54.50
2017-08-24T17:53:51.590Z,55.00
2017-08-24T17:59:19.755Z,55.60
2017-08-24T18:04:48.040Z,56.00
2017-08-24T18:10:17.062Z,56.60
2017-08-24T18:15:45.245Z,56.60
2017-08-24T18:21:13.423Z,57.10
2017-08-24T18:26:41.623Z,57.50
2017-08-24T18:32:09.762Z,57.50
2017-08-24T18:37:37.976Z,57.40
2017-08-24T18:43:06.145Z,57.10
2017-08-24T18:48:34.322Z,56.90
2017-08-24T18:54:03.601Z,57.10
2017-08-24T18:59:31.791Z,57.80
2017-08-24T19:05:00.166Z,58.50
2017-08-24T19:10:28.502Z,59.00
2017-08-24T19:15:56.820Z,59.60
2017-08-24T19:21:25.468Z,60.90
2017-08-24T19:26:53.864Z,63.80
2017-08-24T19:32:22.200Z,65.70
2017-08-24T19:37:50.365Z,68.10
2017-08-24T19:43:18.526Z,69.80
2017-08-24T19:48:46.711Z,70.50
2017-08-24T19:54:14.866Z,71.20
2017-08-24T19:59:43.033Z,72.60
2017-08-24T20:05:11.238Z,73.50
2017-08-24T20:10:39.392Z,73.40
2017-08-24T20:16:07.539Z,73.60
2017-08-24T20:21:35.704Z,73.10
2017-08-24T20:27:03.866Z,73.90
2017-08-24T20:32:32.663Z,74.30
2017-08-24T20:38:00.886Z,74.00
2017-08-24T20:43:29.418Z,73.60
2017-08-24T20:48:58.866Z,73.70
2017-08-24T20:54:28.611Z,73.60
2017-08-24T20:59:56.924Z,73.70
2017-08-24T21:05:25.598Z,73.60
2017-08-24T21:10:53.789Z,74.30
2017-08-24T21:16:24.462Z,74.00
2017-08-24T21:21:53.473Z,74.50
2017-08-24T21:27:23.458Z,73.90
2017-08-24T21:32:51.800Z,74.80
2017-08-24T21:38:20.121Z,74.30
2017-08-24T21:43:48.317Z,74.60
2017-08-24T21:49:16.522Z,75.00
2017-08-24T21:54:44.698Z,75.40
2017-08-24T22:00:12.967Z,75.20
2017-08-24T22:05:41.114Z,75.40
2017-08-24T22:11:09.257Z,75.60
2017-08-24T22:16:37.485Z,75.60
2017-08-24T22:22:05.686Z,75.70
2017-08-24T22:27:34.822Z,75.70
2017-08-24T22:33:03.427Z,75.80
2017-08-24T22:38:31.787Z,75.90
2017-08-24T22:44:00.294Z,76.30
2017-08-24T22:49:28.782Z,76.80
2017-08-24T22:55:02.622Z,76.60
2017-08-24T23:00:36.527Z,77.00
2017-08-24T23:06:04.727Z,77.20
2017-08-24T23:11:32.982Z,77.30
2017-08-24T23:17:01.242Z,77.40
2017-08-24T23:22:29.582Z,77.40
2017-08-24T23:27:57.938Z,77.50
2017-08-24T23:33:26.394Z,77.80
2017-08-24T23:38:58.061Z,77.90
2017-08-24T23:44:26.518Z,78.00
2017-08-24T23:49:55.232Z,78.30
2017-08-24T23:55:23.742Z,78.60
